Time;durP1;ratioP1;P1;durP2;ratioP2;P2;SDS_P1;SDS_P2;PMS_P1;PMS_P2;Temp;Humidity;BMP_temperature;BMP_pressure;BME280_temperature;BME280_humidity;BME280_pressure;Samples;Min_cycle;Max_cycle;Signal;HPM_P1;HPM_P2
2022/08/15 00:03:52;;;;;;;12.93;11.73;;;;;;;;;;10273102;28;20083;-56
2022/08/15 00:09:04;;;;;;;15.07;12.57;;;;;;;;;;10273282;28;20068;-59
2022/08/15 00:14:05;;;;;;;13.95;12.50;;;;;;;;;;10273337;28;20071;-58
2022/08/15 00:19:19;;;;;;;14.80;13.40;;;;;;;;;;10273255;28;20413;-58
2022/08/15 00:24:23;;;;;;;15.45;12.07;;;;;;;;;;10273016;28;20044;-57
2022/08/15 00:29:28;;;;;;;13.02;11.73;;;;;;;;;;10272237;28;20076;-59
2022/08/15 00:34:38;;;;;;;14.32;11.88;;;;;;;;;;10269402;28;20072;-58
2022/08/15 00:39:37;;;;;;;13.85;11.40;;;;;;;;;;10271869;28;20533;-58
2022/08/15 00:44:40;;;;;;;12.63;11.45;;;;;;;;;;10271537;28;20076;-57
2022/08/15 00:50:00;;;;;;;13.90;11.68;;;;;;;;;;10264597;28;20521;-58
2022/08/15 00:55:03;;;;;;;13.30;10.82;;;;;;;;;;10269985;28;20053;-58
2022/08/15 01:00:04;;;;;;;12.35;11.10;;;;;;;;;;10272819;28;20045;-58
2022/08/15 01:05:05;;;;;;;;;;;;;;;;;;10273869;28;20076;-58
2022/08/15 01:10:06;;;;;;;12.05;10.85;;;;;;;;;;10275303;28;20066;-57
2022/08/15 01:15:17;;;;;;;11.20;10.02;;;;;;;;;;10277712;28;20045;-57
2022/08/15 01:20:17;;;;;;;13.23;11.98;;;;;;;;;;10274524;28;20513;-59
2022/08/15 01:25:27;;;;;;;11.50;9.95;;;;;;;;;;10278540;28;20080;-59
2022/08/15 01:30:47;;;;;;;11.25;10.27;;;;;;;;;;10277222;28;20057;-58
2022/08/15 01:36:01;;;;;;;13.45;12.15;;;;;;;;;;10274858;28;20049;-59
2022/08/15 01:41:04;;;;;;;12.80;11.50;;;;;;;;;;10277716;28;20057;-59
2022/08/15 01:46:14;;;;;;;13.23;11.90;;;;;;;;;;10272675;28;20132;-59
2022/08/15 01:51:16;;;;;;;14.07;11.47;;;;;;;;;;10273097;28;20045;-59
2022/08/15 01:56:19;;;;;;;12.68;10.88;;;;;;;;;;10274923;28;20095;-59
2022/08/15 02:01:38;;;;;;;12.23;11.02;;;;;;;;;;10273939;28;20529;-59
2022/08/15 02:06:40;;;;;;;13.32;11.25;;;;;;;;;;10276192;28;20112;-59
2022/08/15 02:11:44;;;;;;;12.60;10.90;;;;;;;;;;10261955;28;20064;-59
2022/08/15 02:17:01;;;;;;;13.38;12.02;;;;;;;;;;10276673;28;20517;-59
2022/08/15 02:22:00;;;;;;;12.18;10.98;;;;;;;;;;10267520;28;20045;-58
2022/08/15 02:27:02;;;;;;;14.30;11.50;;;;;;;;;;10275095;28;20116;-58
2022/08/15 02:32:04;;;;;;;13.95;12.55;;;;;;;;;;10274215;28;20048;-59
2022/08/15 02:37:03;;;;;;;14.05;12.80;;;;;;;;;;10274191;28;20048;-58
2022/08/15 02:42:08;;;;;;;14.10;12.67;;;;;;;;;;10273406;28;20053;-58
2022/08/15 02:47:08;;;;;;;14.05;12.73;;;;;;;;;;10273643;28;20087;-58
2022/08/15 02:52:11;;;;;;;14.25;12.88;;;;;;;;;;10270678;28;20045;-59
2022/08/15 02:57:23;;;;;;;13.65;12.40;;;;;;;;;;10275793;28;20099;-59
2022/08/15 03:02:23;;;;;;;15.03;13.67;;;;;;;;;;10274645;28;20076;-59
2022/08/15 03:07:30;;;;;;;14.25;12.98;;;;;;;;;;10273217;28;20060;-58
2022/08/15 03:12:30;;;;;;;13.95;12.65;;;;;;;;;;10273592;28;20049;-59
2022/08/15 03:17:31;;;;;;;13.88;12.45;;;;;;;;;;10273283;28;20048;-59
2022/08/15 03:22:41;;;;;;;13.32;11.93;;;;;;;;;;10272627;28;20056;-57
2022/08/15 03:27:47;;;;;;;13.00;11.80;;;;;;;;;;10271008;28;20517;-58
2022/08/15 03:32:50;;;;;;;15.75;13.48;;;;;;;;;;10273457;28;20052;-58
2022/08/15 03:37:52;;;;;;;13.15;11.90;;;;;;;;;;10271884;28;20191;-58
2022/08/15 03:43:02;;;;;;;12.63;11.52;;;;;;;;;;10272822;28;20061;-57
2022/08/15 03:48:11;;;;;;;13.73;10.98;;;;;;;;;;10268399;28;20076;-58
2022/08/15 03:53:22;;;;;;;14.68;12.88;;;;;;;;;;10271590;28;20139;-59
2022/08/15 03:58:22;;;;;;;12.20;11.02;;;;;;;;;;10269656;28;20041;-59
2022/08/15 04:03:35;;;;;;;12.73;11.55;;;;;;;;;;10267008;28;20044;-58
2022/08/15 04:08:36;;;;;;;17.10;13.98;;;;;;;;;;10270688;28;20517;-58
2022/08/15 04:13:57;;;;;;;13.23;11.82;;;;;;;;;;10269118;28;20064;-59
2022/08/15 04:19:00;;;;;;;14.65;13.27;;;;;;;;;;10272450;28;20053;-58
2022/08/15 04:24:02;;;;;;;17.35;15.60;;;;;;;;;;10264960;28;20048;-59
2022/08/15 04:29:22;;;;;;;16.08;14.35;;;;;;;;;;10273035;28;20080;-58
2022/08/15 04:34:20;;;;;;;15.85;14.32;;;;;;;;;;10277015;28;20049;-59
2022/08/15 04:39:39;;;;;;;15.40;13.88;;;;;;;;;;10277260;28;20084;-58
2022/08/15 04:44:40;;;;;;;13.90;12.68;;;;;;;;;;10293674;28;20080;-58
2022/08/15 04:49:43;;;;;;;15.07;13.73;;;;;;;;;;10263719;28;20518;-58
2022/08/15 04:54:45;;;;;;;14.35;12.82;;;;;;;;;;10276803;28;20052;-58
2022/08/15 05:00:07;;;;;;;17.40;14.07;;;;;;;;;;10273768;28;20049;-59
2022/08/15 05:05:36;;;;;;;14.80;13.25;;;;;;;;;;10275373;28;20084;-59
2022/08/15 05:10:39;;;;;;;15.48;14.07;;;;;;;;;;10273544;28;20080;-59
2022/08/15 05:15:42;;;;;;;17.27;15.77;;;;;;;;;;10272230;28;20087;-58
2022/08/15 05:20:53;;;;;;;15.93;14.43;;;;;;;;;;10276696;28;20080;-59
2022/08/15 05:25:53;;;;;;;17.55;15.82;;;;;;;;;;10277879;28;20087;-59
2022/08/15 05:30:56;;;;;;;15.10;13.77;;;;;;;;;;10274623;28;20103;-58
2022/08/15 05:35:59;;;;;;;16.38;14.68;;;;;;;;;;10273233;28;20490;-59
2022/08/15 05:41:19;;;;;;;17.58;15.90;;;;;;;;;;10272796;28;20542;-59
2022/08/15 05:46:31;;;;;;;22.40;20.45;;;;;;;;;;10274156;28;20068;-57
2022/08/15 05:51:32;;;;;;;17.08;15.45;;;;;;;;;;10273911;28;20651;-58
2022/08/15 05:56:56;;;;;;;14.73;13.40;;;;;;;;;;10268730;28;20087;-58
2022/08/15 06:01:55;;;;;;;;;;;;;;;;;;10274530;28;20081;-59
2022/08/15 06:07:16;;;;;;;15.32;13.82;;;;;;;;;;10263009;28;19955;-58
2022/08/15 06:12:20;;;;;;;17.10;13.88;;;;;;;;;;10270390;28;20075;-58
2022/08/15 06:17:28;;;;;;;16.77;12.88;;;;;;;;;;10267022;28;20065;-57
2022/08/15 06:22:35;;;;;;;14.53;13.03;;;;;;;;;;10276465;28;20076;-59
2022/08/15 06:27:46;;;;;;;20.27;14.30;;;;;;;;;;10256622;28;20107;-59
2022/08/15 06:32:51;;;;;;;15.57;13.55;;;;;;;;;;10261511;28;20407;-59
2022/08/15 06:38:01;;;;;;;16.85;14.43;;;;;;;;;;10262812;28;20076;-59
2022/08/15 06:43:13;;;;;;;16.58;13.43;;;;;;;;;;10269235;28;20737;-58
2022/08/15 06:48:31;;;;;;;17.15;13.38;;;;;;;;;;10268967;28;20080;-59
2022/08/15 06:53:53;;;;;;;17.77;13.98;;;;;;;;;;10270169;28;20073;-58
2022/08/15 06:59:00;;;;;;;23.27;17.52;;;;;;;;;;10273649;28;20049;-59
2022/08/15 07:04:05;;;;;;;15.13;13.23;;;;;;;;;;10272829;28;20191;-59
2022/08/15 07:09:18;;;;;;;19.92;17.83;;;;;;;;;;10272614;28;20521;-59
2022/08/15 07:14:25;;;;;;;15.70;13.52;;;;;;;;;;10269877;28;20077;-58
2022/08/15 07:19:26;;;;;;;21.83;14.73;;;;;;;;;;10269183;28;20068;-58
2022/08/15 07:24:48;;;;;;;23.60;15.88;;;;;;;;;;10266466;28;20041;-58
2022/08/15 07:29:58;;;;;;;19.05;15.45;;;;;;;;;;10273065;28;20589;-59
2022/08/15 07:35:01;;;;;;;23.55;15.38;;;;;;;;;;10263606;28;20057;-58
2022/08/15 07:40:23;;;;;;;22.35;16.80;;;;;;;;;;10258051;28;20077;-59
2022/08/15 07:45:31;;;;;;;23.27;18.17;;;;;;;;;;10269606;28;20081;-59
2022/08/15 07:50:41;;;;;;;27.02;18.40;;;;;;;;;;10267692;28;20506;-59
2022/08/15 07:56:04;;;;;;;33.22;26.20;;;;;;;;;;10267748;28;20072;-58
2022/08/15 08:01:25;;;;;;;27.25;18.45;;;;;;;;;;10268129;28;20088;-58
2022/08/15 08:06:38;;;;;;;28.35;18.08;;;;;;;;;;10272335;28;20053;-58
2022/08/15 08:11:54;;;;;;;22.37;18.03;;;;;;;;;;10261034;28;20531;-59
2022/08/15 08:16:55;;;;;;;22.92;17.73;;;;;;;;;;10272119;28;20053;-60
2022/08/15 08:22:02;;;;;;;19.10;16.65;;;;;;;;;;10270246;28;20049;-58
2022/08/15 08:27:09;;;;;;;26.02;18.90;;;;;;;;;;10271371;28;20041;-59
2022/08/15 08:32:12;;;;;;;29.05;18.20;;;;;;;;;;10272130;28;20072;-58
2022/08/15 08:37:31;;;;;;;19.77;16.70;;;;;;;;;;10272184;28;20060;-57
2022/08/15 08:42:35;;;;;;;21.40;17.15;;;;;;;;;;10272979;28;20078;-58
2022/08/15 08:48:04;;;;;;;21.25;19.00;;;;;;;;;;10271654;28;20040;-58
2022/08/15 08:53:06;;;;;;;25.83;20.45;;;;;;;;;;10270442;28;20088;-58
2022/08/15 08:58:11;;;;;;;18.83;16.95;;;;;;;;;;10270623;28;20067;-59
2022/08/15 09:03:32;;;;;;;16.60;14.82;;;;;;;;;;10270998;28;20077;-58
2022/08/15 09:08:33;;;;;;;15.40;13.18;;;;;;;;;;10271366;28;20522;-57
2022/08/15 09:13:35;;;;;;;13.63;12.23;;;;;;;;;;10269347;28;20506;-58
2022/08/15 09:18:37;;;;;;;14.07;12.80;;;;;;;;;;10275441;28;20067;-59
2022/08/15 09:23:47;;;;;;;13.88;12.52;;;;;;;;;;10276713;28;20489;-58
2022/08/15 09:28:51;;;;;;;13.75;12.35;;;;;;;;;;10279125;28;20084;-58
2022/08/15 09:34:09;;;;;;;13.75;12.35;;;;;;;;;;10277962;28;20059;-59
2022/08/15 09:39:18;;;;;;;20.00;17.95;;;;;;;;;;10276688;28;20068;-59
2022/08/15 09:44:36;;;;;;;15.55;14.00;;;;;;;;;;10277650;28;20147;-59
2022/08/15 09:49:44;;;;;;;13.27;11.80;;;;;;;;;;10277584;28;20068;-59
2022/08/15 09:54:45;;;;;;;12.63;11.32;;;;;;;;;;10275846;28;20067;-58
2022/08/15 09:59:51;;;;;;;11.27;10.07;;;;;;;;;;10276958;28;20084;-59
2022/08/15 10:05:06;;;;;;;13.80;12.13;;;;;;;;;;10276335;28;20065;-59
2022/08/15 10:10:10;;;;;;;11.38;10.27;;;;;;;;;;10273116;28;20343;-58
2022/08/15 10:15:30;;;;;;;11.35;10.35;;;;;;;;;;10276888;28;20060;-58
2022/08/15 10:20:58;;;;;;;10.45;9.60;;;;;;;;;;10275940;28;20087;-58
2022/08/15 10:26:22;;;;;;;11.15;9.63;;;;;;;;;;10273345;28;20506;-59
2022/08/15 10:31:39;;;;;;;11.38;10.48;;;;;;;;;;10276136;28;20478;-59
2022/08/15 10:37:19;;;;;;;15.63;10.65;;;;;;;;;;10270203;28;20407;-58
2022/08/15 10:42:28;;;;;;;10.93;10.00;;;;;;;;;;10241207;28;20096;-59
2022/08/15 10:47:32;;;;;;;9.07;8.30;;;;;;;;;;10275642;28;20069;-59
2022/08/15 10:52:39;;;;;;;9.73;8.82;;;;;;;;;;10275889;28;20065;-57
2022/08/15 10:57:41;;;;;;;9.88;8.75;;;;;;;;;;10274839;28;20482;-58
2022/08/15 11:02:46;;;;;;;10.68;9.75;;;;;;;;;;10274972;28;20041;-59
2022/08/15 11:08:12;;;;;;;10.02;9.02;;;;;;;;;;10272118;28;20558;-58
2022/08/15 11:13:17;;;;;;;10.45;9.55;;;;;;;;;;10274407;28;20076;-58
2022/08/15 11:18:20;;;;;;;10.25;9.27;;;;;;;;;;10274206;28;20076;-58
2022/08/15 11:23:32;;;;;;;9.30;8.40;;;;;;;;;;10273308;28;20085;-59
2022/08/15 11:28:32;;;;;;;10.05;9.15;;;;;;;;;;10274476;28;20320;-58
2022/08/15 11:33:54;;;;;;;9.98;9.05;;;;;;;;;;10271156;28;20083;-59
2022/08/15 11:38:54;;;;;;;9.57;8.68;;;;;;;;;;10272887;28;20072;-58
2022/08/15 11:44:13;;;;;;;8.98;7.97;;;;;;;;;;10273555;28;20088;-59
2022/08/15 11:49:14;;;;;;;9.45;8.45;;;;;;;;;;10271035;28;20106;-59
2022/08/15 11:54:20;;;;;;;8.63;7.85;;;;;;;;;;10271238;28;20064;-59
2022/08/15 11:59:34;;;;;;;8.57;7.70;;;;;;;;;;10272165;28;20145;-58
2022/08/15 12:04:34;;;;;;;10.80;9.73;;;;;;;;;;10272357;28;20044;-58
2022/08/15 12:09:53;;;;;;;10.05;9.23;;;;;;;;;;10270453;28;20069;-58
2022/08/15 12:15:03;;;;;;;8.43;7.72;;;;;;;;;;10272148;28;20072;-59
2022/08/15 12:20:04;;;;;;;9.02;8.13;;;;;;;;;;10272411;28;20072;-59
2022/08/15 12:25:22;;;;;;;10.25;9.35;;;;;;;;;;10273138;28;20041;-58
2022/08/15 12:30:42;;;;;;;8.27;7.47;;;;;;;;;;10273176;28;20076;-58
2022/08/15 12:35:41;;;;;;;9.50;8.70;;;;;;;;;;10266196;28;20064;-59
2022/08/15 12:41:00;;;;;;;13.38;8.27;;;;;;;;;;10268764;28;20538;-56
2022/08/15 12:46:20;;;;;;;9.57;7.63;;;;;;;;;;10272421;28;20069;-58
2022/08/15 12:51:22;;;;;;;9.57;8.68;;;;;;;;;;10278387;28;20529;-59
2022/08/15 12:56:26;;;;;;;9.93;8.98;;;;;;;;;;10276795;28;20458;-59
2022/08/15 13:01:46;;;;;;;8.57;7.70;;;;;;;;;;10270419;28;20095;-61
2022/08/15 13:06:56;;;;;;;7.55;6.85;;;;;;;;;;10271580;28;20455;-58
2022/08/15 13:11:55;;;;;;;7.88;7.07;;;;;;;;;;10277412;28;20079;-59
2022/08/15 13:16:55;;;;;;;9.43;8.52;;;;;;;;;;10278606;28;20069;-58
2022/08/15 13:27:32;;;;;;;6.32;5.82;;;;;;;;;;10279672;28;20037;-59
2022/08/15 13:32:32;;;;;;;7.22;5.78;;;;;;;;;;10278182;28;20076;-58
2022/08/15 13:37:35;;;;;;;6.55;5.95;;;;;;;;;;10277232;28;20072;-57
2022/08/15 13:42:54;;;;;;;14.70;8.98;;;;;;;;;;10279085;28;20061;-58
2022/08/15 13:48:01;;;;;;;9.40;6.32;;;;;;;;;;10278524;28;20458;-58
2022/08/15 13:53:13;;;;;;;10.30;7.40;;;;;;;;;;10277405;28;20512;-57
2022/08/15 13:58:12;;;;;;;7.70;6.93;;;;;;;;;;10277443;28;20486;-58
2022/08/15 14:03:20;;;;;;;8.50;6.05;;;;;;;;;;10276721;28;20072;-58
2022/08/15 14:08:21;;;;;;;6.07;5.53;;;;;;;;;;10276409;28;20514;-57
2022/08/15 14:13:30;;;;;;;6.82;6.22;;;;;;;;;;10276440;28;20544;-58
2022/08/15 14:18:35;;;;;;;9.40;7.43;;;;;;;;;;10277060;28;20382;-57
2022/08/15 14:23:50;;;;;;;8.40;7.60;;;;;;;;;;10274769;28;20453;-58
2022/08/15 14:28:53;;;;;;;6.72;5.93;;;;;;;;;;10276706;28;20079;-58
2022/08/15 14:34:00;;;;;;;6.65;5.97;;;;;;;;;;10276675;28;20073;-58
2022/08/15 14:39:18;;;;;;;9.43;6.70;;;;;;;;;;10276733;28;20498;-58
2022/08/15 14:44:19;;;;;;;6.00;5.50;;;;;;;;;;10276569;28;20092;-59
2022/08/15 14:49:38;;;;;;;7.22;6.53;;;;;;;;;;10275163;28;20482;-59
2022/08/15 14:54:57;;;;;;;8.15;7.38;;;;;;;;;;10276098;28;20138;-60
2022/08/15 14:59:57;;;;;;;7.97;7.18;;;;;;;;;;10269251;28;20084;-58
2022/08/15 15:05:07;;;;;;;6.78;6.18;;;;;;;;;;10275496;28;20108;-59
2022/08/15 15:10:06;;;;;;;6.75;6.05;;;;;;;;;;10274766;28;20080;-60
2022/08/15 15:15:21;;;;;;;7.57;6.03;;;;;;;;;;10274820;28;20489;-59
2022/08/15 15:20:21;;;;;;;8.80;7.95;;;;;;;;;;10274648;28;20503;-59
2022/08/15 15:25:40;;;;;;;8.20;7.38;;;;;;;;;;10274306;28;20509;-59
2022/08/15 15:30:39;;;;;;;7.28;6.55;;;;;;;;;;10274305;28;20060;-61
2022/08/15 15:35:40;;;;;;;8.35;6.55;;;;;;;;;;10274385;28;20494;-58
2022/08/15 15:40:40;;;;;;;10.25;9.30;;;;;;;;;;10272948;28;20060;-58
2022/08/15 15:45:41;;;;;;;8.60;7.78;;;;;;;;;;10273399;28;20071;-58
2022/08/15 15:50:41;;;;;;;8.30;7.50;;;;;;;;;;10273575;28;20079;-58
2022/08/15 15:55:44;;;;;;;7.03;6.43;;;;;;;;;;10273045;28;20065;-58
2022/08/15 16:00:44;;;;;;;10.60;7.80;;;;;;;;;;10272761;28;20463;-58
2022/08/15 16:05:47;;;;;;;7.63;6.47;;;;;;;;;;10272205;28;20478;-58
2022/08/15 16:11:09;;;;;;;11.70;8.00;;;;;;;;;;10271414;28;20076;-57
2022/08/15 16:16:12;;;;;;;11.07;9.38;;;;;;;;;;10272664;28;20052;-58
2022/08/15 16:21:19;;;;;;;9.25;8.25;;;;;;;;;;10270425;28;20076;-57
2022/08/15 16:26:29;;;;;;;8.68;7.82;;;;;;;;;;10278453;28;20041;-57
2022/08/15 16:31:33;;;;;;;13.23;12.00;;;;;;;;;;10281017;28;20087;-59
2022/08/15 16:36:37;;;;;;;9.90;8.60;;;;;;;;;;10279964;28;20068;-58
2022/08/15 16:41:38;;;;;;;9.50;8.57;;;;;;;;;;10280725;28;20080;-58
2022/08/15 16:46:53;;;;;;;11.95;10.85;;;;;;;;;;10280804;28;20079;-56
2022/08/15 16:51:59;;;;;;;10.07;9.07;;;;;;;;;;10275884;28;20084;-56
2022/08/15 16:57:12;;;;;;;11.65;8.52;;;;;;;;;;10280721;28;20064;-58
2022/08/15 17:02:21;;;;;;;8.65;7.85;;;;;;;;;;10279999;28;20069;-57
2022/08/15 17:07:47;;;;;;;7.60;6.90;;;;;;;;;;10279170;28;20052;-57
2022/08/15 17:12:53;;;;;;;11.73;9.73;;;;;;;;;;10278955;28;20518;-56
2022/08/15 17:17:58;;;;;;;10.40;9.40;;;;;;;;;;10279378;28;20053;-57
2022/08/15 17:23:04;;;;;;;10.68;9.48;;;;;;;;;;10278229;28;20049;-57
2022/08/15 17:28:07;;;;;;;9.05;7.50;;;;;;;;;;10279623;28;20068;-56
2022/08/15 17:33:27;;;;;;;8.93;8.10;;;;;;;;;;10278583;28;20140;-58
2022/08/15 17:38:44;;;;;;;9.80;8.90;;;;;;;;;;10275146;28;20499;-57
2022/08/15 17:43:50;;;;;;;13.50;10.15;;;;;;;;;;10278175;28;20092;-57
2022/08/15 17:48:53;;;;;;;12.05;10.05;;;;;;;;;;10278663;28;20080;-57
2022/08/15 17:53:57;;;;;;;7.97;7.23;;;;;;;;;;10277613;28;20079;-57
2022/08/15 17:58:58;;;;;;;11.88;8.82;;;;;;;;;;10278519;28;20076;-57
2022/08/15 18:03:59;;;;;;;8.98;8.20;;;;;;;;;;10276723;28;20518;-58
2022/08/15 18:09:07;;;;;;;9.25;7.85;;;;;;;;;;10274820;28;20112;-57
2022/08/15 18:14:05;;;;;;;;;;;;;;;;;;10278217;28;20087;-57
2022/08/15 18:19:25;;;;;;;10.88;8.43;;;;;;;;;;10277074;28;19964;-57
2022/08/15 18:24:27;;;;;;;8.60;7.72;;;;;;;;;;10276545;28;20091;-56
2022/08/15 18:29:50;;;;;;;10.18;7.95;;;;;;;;;;10275354;28;20092;-58
2022/08/15 18:34:52;;;;;;;10.23;8.18;;;;;;;;;;10275759;28;20517;-58
2022/08/15 18:45:24;;;;;;;7.72;6.93;;;;;;;;;;10275486;28;20037;-57
2022/08/15 18:50:35;;;;;;;11.77;10.63;;;;;;;;;;10275685;28;20072;-58
2022/08/15 18:55:47;;;;;;;12.85;11.15;;;;;;;;;;10275698;28;20076;-57
2022/08/15 19:00:53;;;;;;;9.93;9.13;;;;;;;;;;10275513;28;20091;-58
2022/08/15 19:06:06;;;;;;;8.68;7.82;;;;;;;;;;10271904;28;20072;-58
2022/08/15 19:11:30;;;;;;;10.68;9.65;;;;;;;;;;10273000;28;20062;-56
2022/08/15 19:16:42;;;;;;;10.45;9.35;;;;;;;;;;10274808;28;20080;-57
2022/08/15 19:21:42;;;;;;;9.32;7.57;;;;;;;;;;10269017;28;20069;-57
2022/08/15 19:26:48;;;;;;;10.98;7.10;;;;;;;;;;10274928;28;20487;-58
2022/08/15 19:31:53;;;;;;;9.07;8.23;;;;;;;;;;10268730;28;20085;-58
2022/08/15 19:36:57;;;;;;;8.48;7.68;;;;;;;;;;10274054;28;20079;-57
2022/08/15 19:41:59;;;;;;;9.80;8.90;;;;;;;;;;10274072;28;20092;-58
2022/08/15 19:47:00;;;;;;;9.30;8.45;;;;;;;;;;10273733;28;20041;-57
2022/08/15 19:52:01;;;;;;;9.80;8.82;;;;;;;;;;10274225;28;20478;-58
2022/08/15 19:57:05;;;;;;;9.85;8.63;;;;;;;;;;10272145;28;20077;-58
2022/08/15 20:02:17;;;;;;;10.02;9.00;;;;;;;;;;10272937;28;20083;-57
2022/08/15 20:07:28;;;;;;;12.40;8.55;;;;;;;;;;10273164;28;20072;-57
2022/08/15 20:12:42;;;;;;;9.65;8.68;;;;;;;;;;10273711;28;20045;-54
2022/08/15 20:17:44;;;;;;;9.27;8.48;;;;;;;;;;10273087;28;20071;-57
2022/08/15 20:23:01;;;;;;;8.80;8.10;;;;;;;;;;10272972;28;20068;-56
2022/08/15 20:28:12;;;;;;;8.43;7.63;;;;;;;;;;10271132;28;20525;-56
2022/08/15 20:33:31;;;;;;;9.13;7.30;;;;;;;;;;10273178;28;20068;-55
2022/08/15 20:38:34;;;;;;;8.77;7.70;;;;;;;;;;10272812;28;20071;-57
2022/08/15 20:43:59;;;;;;;8.82;8.02;;;;;;;;;;10271611;28;20065;-58
2022/08/15 20:49:02;;;;;;;10.02;7.25;;;;;;;;;;10273854;28;20096;-57
2022/08/15 20:54:04;;;;;;;9.10;7.13;;;;;;;;;;10270327;28;20494;-58
2022/08/15 20:59:41;;;;;;;8.05;6.75;;;;;;;;;;10267493;28;20510;-58
2022/08/15 21:05:03;;;;;;;8.27;7.50;;;;;;;;;;10270758;28;20072;-57
2022/08/15 21:10:07;;;;;;;9.38;8.48;;;;;;;;;;10268578;28;20512;-55
2022/08/15 21:15:17;;;;;;;8.85;7.95;;;;;;;;;;10279327;28;20076;-57
2022/08/15 21:20:49;;;;;;;8.30;7.60;;;;;;;;;;10279344;28;20103;-56
2022/08/15 21:25:49;;;;;;;9.30;8.02;;;;;;;;;;10274671;28;20045;-57
2022/08/15 21:30:52;;;;;;;10.73;7.90;;;;;;;;;;10278992;28;20045;-56
2022/08/15 21:36:28;;;;;;;8.40;7.40;;;;;;;;;;10276163;28;20534;-57
2022/08/15 21:41:48;;;;;;;8.85;7.97;;;;;;;;;;10276704;28;20091;-57
2022/08/15 21:47:08;;;;;;;8.70;7.85;;;;;;;;;;10274307;28;20044;-56
2022/08/15 21:52:07;;;;;;;14.27;8.85;;;;;;;;;;10278029;28;20099;-56
2022/08/15 21:57:19;;;;;;;9.25;8.45;;;;;;;;;;10276511;28;20049;-56
2022/08/15 22:02:27;;;;;;;8.32;7.50;;;;;;;;;;10277208;28;20079;-57
2022/08/15 22:07:32;;;;;;;10.30;8.48;;;;;;;;;;10278949;28;20076;-57
2022/08/15 22:12:36;;;;;;;9.48;8.68;;;;;;;;;;10278703;28;20084;-57
2022/08/15 22:17:34;;;;;;;9.48;8.52;;;;;;;;;;10278670;28;20083;-57
2022/08/15 22:22:33;;;;;;;9.32;8.52;;;;;;;;;;10277490;28;20517;-58
2022/08/15 22:27:35;;;;;;;10.40;9.23;;;;;;;;;;10271492;28;20076;-54
2022/08/15 22:32:35;;;;;;;10.50;8.88;;;;;;;;;;10277702;28;20068;-56
2022/08/15 22:37:37;;;;;;;11.05;9.13;;;;;;;;;;10275239;28;20478;-56
2022/08/15 22:42:49;;;;;;;8.85;7.97;;;;;;;;;;10275792;28;20088;-56
2022/08/15 22:47:49;;;;;;;10.75;9.50;;;;;;;;;;10274935;28;20061;-57
2022/08/15 22:52:51;;;;;;;8.52;7.80;;;;;;;;;;10274965;28;20138;-56
2022/08/15 22:57:51;;;;;;;10.48;8.85;;;;;;;;;;10275804;28;20084;-57
2022/08/15 23:02:57;;;;;;;9.77;8.88;;;;;;;;;;10275959;28;20088;-56
2022/08/15 23:07:58;;;;;;;9.88;9.02;;;;;;;;;;10273004;28;20080;-57
2022/08/15 23:13:05;;;;;;;10.55;9.65;;;;;;;;;;10275195;28;20098;-57
2022/08/15 23:18:05;;;;;;;9.25;8.48;;;;;;;;;;10273077;28;20084;-57
2022/08/15 23:23:08;;;;;;;9.93;8.98;;;;;;;;;;10272875;28;20068;-58
2022/08/15 23:28:07;;;;;;;9.27;8.55;;;;;;;;;;10273480;28;20942;-57
2022/08/15 23:33:07;;;;;;;11.30;9.60;;;;;;;;;;10272893;28;20072;-57
2022/08/15 23:38:26;;;;;;;11.27;9.68;;;;;;;;;;10274263;28;20075;-57
2022/08/15 23:43:26;;;;;;;9.95;9.07;;;;;;;;;;10273813;28;20080;-56
2022/08/15 23:48:30;;;;;;;10.02;9.15;;;;;;;;;;10273836;28;20076;-57
2022/08/15 23:53:29;;;;;;;10.18;8.93;;;;;;;;;;10274142;28;20040;-57
2022/08/15 23:58:30;;;;;;;11.35;9.75;;;;;;;;;;10273477;28;20079;-56
